createdAt,value
2018-02-08T00:02:13.959Z,77.70
2018-02-08T00:04:42.270Z,77.60
2018-02-08T00:07:10.615Z,77.50
2018-02-08T00:09:38.933Z,77.50
2018-02-08T00:12:07.266Z,77.40
2018-02-08T00:14:35.584Z,77.20
2018-02-08T00:17:03.928Z,77.10
2018-02-08T00:19:32.259Z,77.20
2018-02-08T00:22:00.614Z,77.70
2018-02-08T00:24:28.945Z,76.70
2018-02-08T00:26:57.354Z,76.50
2018-02-08T00:29:25.662Z,76.80
2018-02-08T00:31:53.979Z,77.00
2018-02-08T00:34:22.319Z,77.00
2018-02-08T00:36:50.641Z,76.90
2018-02-08T00:39:18.975Z,76.70
2018-02-08T00:41:47.291Z,76.60
2018-02-08T00:44:15.662Z,76.30
2018-02-08T00:46:43.976Z,76.40
2018-02-08T00:49:12.311Z,76.50
2018-02-08T00:51:40.625Z,76.60
2018-02-08T00:54:08.961Z,76.40
2018-02-08T00:56:37.279Z,76.60
2018-02-08T00:59:05.609Z,76.60
2018-02-08T01:01:33.932Z,76.50
2018-02-08T01:04:02.271Z,76.40
2018-02-08T01:06:29.822Z,76.40
2018-02-08T01:08:58.175Z,76.50
2018-02-08T01:11:26.488Z,76.40
2018-02-08T01:13:54.826Z,76.10
2018-02-08T01:16:23.148Z,76.20
2018-02-08T01:18:51.488Z,76.30
2018-02-08T01:21:19.806Z,76.30
2018-02-08T01:23:48.150Z,75.90
2018-02-08T01:26:16.454Z,75.70
2018-02-08T01:28:44.791Z,75.70
2018-02-08T01:31:13.108Z,75.50
2018-02-08T01:33:41.451Z,75.20
2018-02-08T01:36:09.763Z,75.40
2018-02-08T01:38:38.093Z,75.60
2018-02-08T01:41:06.417Z,75.80
2018-02-08T01:43:34.754Z,76.00
2018-02-08T01:46:03.062Z,75.70
2018-02-08T01:48:31.395Z,75.70
2018-02-08T01:50:59.715Z,75.80
2018-02-08T01:53:28.055Z,75.80
2018-02-08T01:55:56.371Z,75.60
2018-02-08T01:58:24.703Z,76.20
2018-02-08T02:00:53.023Z,76.20
2018-02-08T02:03:21.359Z,76.00
2018-02-08T02:05:49.679Z,76.00
2018-02-08T02:08:18.017Z,75.90
2018-02-08T02:10:46.331Z,75.70
2018-02-08T02:13:14.673Z,75.60
2018-02-08T02:15:43.011Z,75.50
2018-02-08T02:18:11.355Z,75.40
2018-02-08T02:20:39.672Z,75.40
2018-02-08T02:23:07.985Z,75.10
2018-02-08T02:25:36.319Z,75.00
2018-02-08T02:28:04.646Z,75.80
2018-02-08T02:30:32.987Z,74.80
2018-02-08T02:33:01.309Z,74.70
2018-02-08T02:35:29.647Z,74.80
2018-02-08T02:37:57.970Z,75.60
2018-02-08T02:40:26.316Z,74.60
2018-02-08T02:42:54.635Z,74.50
2018-02-08T02:45:22.977Z,74.60
2018-02-08T02:47:51.299Z,74.70
2018-02-08T02:50:19.635Z,74.80
2018-02-08T02:52:47.948Z,74.90
2018-02-08T02:55:16.296Z,74.70
2018-02-08T02:57:44.624Z,74.90
2018-02-08T03:00:12.958Z,74.20
2018-02-08T03:02:41.312Z,74.00
2018-02-08T03:05:09.654Z,74.20
2018-02-08T03:07:37.976Z,74.80
2018-02-08T03:10:06.314Z,74.40
2018-02-08T03:12:34.627Z,74.60
2018-02-08T03:15:02.978Z,74.60
2018-02-08T03:17:31.303Z,74.30
2018-02-08T03:19:59.646Z,74.20
2018-02-08T03:22:27.962Z,74.10
2018-02-08T03:24:56.323Z,74.30
2018-02-08T03:27:24.646Z,74.10
2018-02-08T03:29:52.992Z,74.10
2018-02-08T03:32:21.318Z,73.90
2018-02-08T03:34:49.651Z,73.80
2018-02-08T03:37:17.966Z,74.00
2018-02-08T03:39:46.304Z,74.00
2018-02-08T03:42:14.630Z,73.70
2018-02-08T03:44:42.967Z,73.40
2018-02-08T03:47:11.287Z,73.60
2018-02-08T03:49:39.619Z,73.80
2018-02-08T03:52:07.940Z,73.90
2018-02-08T03:54:36.279Z,74.00
2018-02-08T03:57:04.596Z,74.00
2018-02-08T03:59:33.583Z,73.40
2018-02-08T04:02:01.894Z,73.30
2018-02-08T04:04:30.231Z,73.50
2018-02-08T04:06:58.553Z,73.60
2018-02-08T04:09:26.899Z,73.60
2018-02-08T04:11:55.231Z,73.40
2018-02-08T04:14:23.545Z,73.30
2018-02-08T04:16:51.897Z,73.30
2018-02-08T04:19:20.218Z,73.30
2018-02-08T04:21:48.566Z,73.40
2018-02-08T04:24:16.883Z,73.30
2018-02-08T04:26:45.233Z,73.50
2018-02-08T04:29:13.596Z,73.20
2018-02-08T04:31:41.984Z,72.80
2018-02-08T04:34:10.334Z,72.90
2018-02-08T04:36:37.938Z,72.90
2018-02-08T04:39:18.185Z,72.90
2018-02-08T04:41:58.379Z,73.00
2018-02-08T04:44:38.543Z,73.10
2018-02-08T04:47:28.536Z,73.10
2018-02-08T04:49:56.849Z,73.20
2018-02-08T04:52:25.191Z,73.10
2018-02-08T04:54:53.515Z,73.00
2018-02-08T04:57:21.855Z,73.00
2018-02-08T04:59:50.175Z,73.20
2018-02-08T05:02:20.160Z,73.10
2018-02-08T05:04:48.480Z,73.10
2018-02-08T05:07:16.818Z,73.10
2018-02-08T05:09:45.151Z,73.10
2018-02-08T05:12:13.627Z,73.20
2018-02-08T05:14:42.167Z,73.40
2018-02-08T05:17:10.522Z,73.30
2018-02-08T05:19:38.854Z,73.20
2018-02-08T05:22:07.199Z,72.90
2018-02-08T05:24:35.506Z,72.90
2018-02-08T05:27:03.842Z,72.70
2018-02-08T05:29:32.161Z,72.80
2018-02-08T05:32:00.499Z,72.90
2018-02-08T05:34:28.810Z,73.10
2018-02-08T05:36:57.156Z,73.20
2018-02-08T05:39:25.479Z,73.30
2018-02-08T05:41:53.822Z,73.30
2018-02-08T05:44:22.138Z,73.30
2018-02-08T05:46:50.484Z,72.90
2018-02-08T05:49:18.803Z,72.80
2018-02-08T05:51:47.144Z,72.80
2018-02-08T05:54:15.462Z,72.60
2018-02-08T05:56:43.859Z,72.60
2018-02-08T05:59:12.704Z,72.70
2018-02-08T06:01:41.213Z,72.50
2018-02-08T06:04:09.579Z,72.50
2018-02-08T06:06:37.915Z,72.50
2018-02-08T06:09:06.235Z,72.00
2018-02-08T06:11:34.575Z,71.60
2018-02-08T06:14:02.893Z,71.50
2018-02-08T06:16:31.211Z,71.80
2018-02-08T06:18:59.573Z,72.20
2018-02-08T06:21:27.890Z,72.30
2018-02-08T06:23:56.238Z,72.20
2018-02-08T06:26:24.560Z,72.00
2018-02-08T06:28:52.902Z,72.00
2018-02-08T06:31:21.222Z,72.20
2018-02-08T06:33:49.559Z,72.30
2018-02-08T06:36:17.878Z,72.30
2018-02-08T06:38:46.244Z,72.30
2018-02-08T06:41:14.634Z,72.30
2018-02-08T06:43:43.044Z,72.20
2018-02-08T06:46:12.749Z,72.00
2018-02-08T06:48:41.111Z,72.00
2018-02-08T06:51:09.464Z,72.20
2018-02-08T06:53:37.803Z,72.10
2018-02-08T06:56:06.117Z,72.30
2018-02-08T06:58:34.456Z,72.10
2018-02-08T07:01:02.785Z,71.80
2018-02-08T07:03:31.127Z,71.70
2018-02-08T07:05:59.452Z,71.50
2018-02-08T07:08:27.793Z,71.50
2018-02-08T07:10:56.124Z,71.40
2018-02-08T07:13:24.471Z,71.00
2018-02-08T07:15:52.801Z,71.10
2018-02-08T07:18:21.138Z,71.10
2018-02-08T07:20:49.456Z,71.00
2018-02-08T07:23:17.799Z,71.10
2018-02-08T07:25:46.105Z,71.10
2018-02-08T07:28:14.458Z,71.00
2018-02-08T07:30:42.787Z,70.70
2018-02-08T07:33:11.128Z,70.50
2018-02-08T07:35:39.440Z,70.40
2018-02-08T07:38:07.786Z,70.30
2018-02-08T07:40:36.110Z,70.00
2018-02-08T07:43:04.454Z,69.80
2018-02-08T07:45:32.877Z,69.70
2018-02-08T07:48:01.227Z,69.80
2018-02-08T07:50:29.551Z,70.00
2018-02-08T07:52:57.894Z,70.00
2018-02-08T07:55:26.231Z,69.90
2018-02-08T07:57:54.577Z,69.60
2018-02-08T08:00:22.906Z,69.40
2018-02-08T08:02:51.220Z,69.30
2018-02-08T08:05:19.566Z,69.20
2018-02-08T08:07:47.886Z,69.20
2018-02-08T08:10:16.240Z,68.90
2018-02-08T08:12:44.566Z,68.70
2018-02-08T08:15:12.908Z,68.50
2018-02-08T08:17:41.233Z,68.30
2018-02-08T08:20:09.571Z,68.20
2018-02-08T08:22:37.898Z,68.10
2018-02-08T08:25:06.234Z,67.80
2018-02-08T08:27:34.552Z,67.50
2018-02-08T08:30:02.895Z,67.30
2018-02-08T08:32:31.232Z,67.10
2018-02-08T08:34:59.576Z,66.60
2018-02-08T08:37:27.896Z,66.40
2018-02-08T08:39:56.243Z,66.10
2018-02-08T08:42:24.562Z,65.90
2018-02-08T08:44:52.900Z,65.60
2018-02-08T08:47:21.215Z,65.40
2018-02-08T08:49:49.562Z,65.00
2018-02-08T09:02:37.044Z,65.00
2018-02-08T09:05:05.359Z,64.30
2018-02-08T09:07:32.887Z,64.20
2018-02-08T09:10:01.204Z,64.30
2018-02-08T09:12:29.496Z,64.00
2018-02-08T09:14:57.812Z,63.80
2018-02-08T09:17:26.117Z,63.80
2018-02-08T09:19:54.432Z,63.30
2018-02-08T09:22:22.728Z,62.80
2018-02-08T09:24:51.044Z,62.20
2018-02-08T09:27:19.336Z,61.80
2018-02-08T09:29:47.651Z,61.60
2018-02-08T09:32:15.943Z,61.50
2018-02-08T09:34:44.263Z,60.90
2018-02-08T09:37:12.560Z,60.40
2018-02-08T09:39:40.874Z,59.70
2018-02-08T09:42:09.163Z,59.30
2018-02-08T09:44:36.703Z,59.40
2018-02-08T09:47:05.000Z,59.00
2018-02-08T09:49:33.321Z,58.80
2018-02-08T09:52:01.616Z,58.80
2018-02-08T09:54:29.935Z,59.20
2018-02-08T09:56:58.228Z,59.30
2018-02-08T09:59:26.542Z,59.60
2018-02-08T10:01:54.832Z,59.90
2018-02-08T10:04:23.119Z,59.80
2018-02-08T10:06:51.432Z,59.70
2018-02-08T10:09:19.728Z,60.10
2018-02-08T10:11:48.085Z,60.30
2018-02-08T10:14:16.376Z,60.00
2018-02-08T10:16:44.692Z,59.60
2018-02-08T10:19:12.980Z,59.30
2018-02-08T10:21:41.292Z,58.80
2018-02-08T10:24:09.584Z,58.50
2018-02-08T10:26:37.892Z,58.40
2018-02-08T10:29:06.183Z,58.60
2018-02-08T10:31:34.592Z,58.50
2018-02-08T10:34:02.885Z,58.30
2018-02-08T10:36:31.192Z,57.80
2018-02-08T10:38:59.487Z,57.50
2018-02-08T10:41:27.860Z,57.00
2018-02-08T10:43:56.148Z,56.90
2018-02-08T10:46:23.687Z,56.90
2018-02-08T10:48:51.977Z,56.60
2018-02-08T10:51:20.288Z,56.30
2018-02-08T10:53:48.580Z,55.70
2018-02-08T10:56:16.890Z,55.40
2018-02-08T10:58:45.180Z,55.30
2018-02-08T11:01:13.500Z,54.80
2018-02-08T11:03:41.832Z,54.30
2018-02-08T11:06:09.373Z,54.30
2018-02-08T11:08:37.655Z,53.90
2018-02-08T11:11:05.195Z,53.80
2018-02-08T11:13:33.484Z,52.60
2018-02-08T11:16:01.792Z,51.70
2018-02-08T11:18:30.080Z,50.90
2018-02-08T11:20:58.392Z,49.80
2018-02-08T11:23:26.679Z,48.70
2018-02-08T11:25:54.987Z,46.90
2018-02-08T11:28:22.515Z,46.90
2018-02-08T11:30:50.824Z,44.90
2018-02-08T11:33:19.117Z,44.80
2018-02-08T11:35:47.432Z,45.10
2018-02-08T11:38:15.720Z,46.40
2018-02-08T11:40:44.048Z,46.30
2018-02-08T11:43:12.342Z,45.70
2018-02-08T11:45:40.663Z,45.90
2018-02-08T11:48:08.952Z,46.00
2018-02-08T11:50:37.245Z,46.30
2018-02-08T11:53:05.557Z,46.50
2018-02-08T11:55:33.851Z,46.70
2018-02-08T11:58:02.168Z,46.00
2018-02-08T12:00:30.460Z,45.80
2018-02-08T12:02:58.776Z,45.50
2018-02-08T12:05:27.072Z,45.00
2018-02-08T12:07:55.388Z,44.30
2018-02-08T12:10:23.671Z,44.10
2018-02-08T12:12:51.991Z,44.30
2018-02-08T12:15:20.285Z,43.30
2018-02-08T12:17:48.598Z,43.50
2018-02-08T12:20:16.928Z,44.30
2018-02-08T12:22:44.503Z,44.30
2018-02-08T12:25:12.791Z,44.90
2018-02-08T12:27:41.100Z,44.90
2018-02-08T12:30:09.388Z,44.80
2018-02-08T12:32:37.700Z,44.80
2018-02-08T12:35:05.991Z,44.60
2018-02-08T12:37:34.300Z,45.00
2018-02-08T12:40:02.589Z,44.80
2018-02-08T12:42:30.159Z,44.80
2018-02-08T12:44:58.456Z,44.50
2018-02-08T12:47:26.768Z,44.50
2018-02-08T12:49:55.060Z,43.90
2018-02-08T12:52:23.372Z,43.10
2018-02-08T12:54:51.660Z,42.90
2018-02-08T12:57:19.204Z,42.90
2018-02-08T12:59:47.499Z,43.00
2018-02-08T13:02:15.811Z,42.20
2018-02-08T13:04:44.103Z,41.90
2018-02-08T13:07:12.413Z,41.50
2018-02-08T13:09:40.705Z,41.10
2018-02-08T13:12:09.015Z,41.80
2018-02-08T13:14:37.309Z,42.10
2018-02-08T13:17:05.623Z,42.50
2018-02-08T13:19:33.911Z,42.50
2018-02-08T13:22:01.460Z,42.50
2018-02-08T13:24:29.747Z,42.40
2018-02-08T13:26:58.041Z,42.10
2018-02-08T13:29:26.352Z,41.90
2018-02-08T13:31:54.632Z,41.70
2018-02-08T13:34:22.943Z,41.10
2018-02-08T13:36:51.232Z,41.30
2018-02-08T13:39:24.147Z,40.80
2018-02-08T13:41:52.436Z,41.00
2018-02-08T13:44:20.748Z,40.60
2018-02-08T13:46:49.035Z,40.50
2018-02-08T13:49:19.873Z,40.10
2018-02-08T13:52:00.028Z,40.10
2018-02-08T13:54:44.003Z,40.30
2018-02-08T13:57:17.905Z,40.90
2018-02-08T13:59:46.815Z,41.00
2018-02-08T14:02:15.112Z,40.90
2018-02-08T14:04:43.432Z,41.10
2018-02-08T14:07:11.728Z,41.70
2018-02-08T14:09:40.036Z,41.90
2018-02-08T14:12:08.321Z,42.10
2018-02-08T14:14:36.631Z,43.30
2018-02-08T14:17:04.920Z,43.20
2018-02-08T14:19:33.224Z,42.90
2018-02-08T14:22:01.560Z,43.20
2018-02-08T14:24:29.848Z,43.30
2018-02-08T14:26:58.139Z,43.40
2018-02-08T14:29:26.444Z,43.70
2018-02-08T14:31:54.731Z,44.10
2018-02-08T14:34:23.045Z,43.90
2018-02-08T14:36:51.328Z,44.20
2018-02-08T14:39:19.642Z,44.60
2018-02-08T14:41:47.936Z,45.10
2018-02-08T14:44:16.241Z,45.20
2018-02-08T14:46:44.524Z,45.20
2018-02-08T14:49:12.840Z,45.10
2018-02-08T14:51:41.124Z,45.70
2018-02-08T14:54:09.472Z,46.20
2018-02-08T14:56:37.751Z,46.50
2018-02-08T14:59:06.036Z,46.60
2018-02-08T15:01:34.348Z,46.80
2018-02-08T15:04:02.636Z,47.00
2018-02-08T15:06:30.944Z,47.50
2018-02-08T15:08:59.218Z,47.80
2018-02-08T15:11:27.532Z,47.90
2018-02-08T15:13:55.816Z,47.90
2018-02-08T15:16:24.120Z,48.10
2018-02-08T15:18:52.408Z,48.20
2018-02-08T15:21:20.720Z,48.70
2018-02-08T15:23:49.003Z,49.30
2018-02-08T15:26:17.304Z,49.80
2018-02-08T15:28:45.588Z,49.90
2018-02-08T15:31:13.905Z,50.20
2018-02-08T15:33:42.196Z,50.60
2018-02-08T15:36:10.503Z,51.10
2018-02-08T15:38:38.800Z,51.50
2018-02-08T15:41:07.116Z,52.00
2018-02-08T15:43:35.414Z,52.50
2018-02-08T15:46:03.786Z,53.00
2018-02-08T15:48:32.044Z,53.70
2018-02-08T15:51:00.356Z,54.30
2018-02-08T15:53:27.886Z,54.40
2018-02-08T15:55:56.196Z,55.40
2018-02-08T15:58:24.488Z,56.00
2018-02-08T16:00:52.797Z,56.50
2018-02-08T16:03:21.092Z,56.80
2018-02-08T16:05:49.400Z,57.10
2018-02-08T16:08:17.688Z,57.20
2018-02-08T16:10:46.008Z,57.40
2018-02-08T16:13:13.535Z,57.30
2018-02-08T16:15:41.847Z,57.90
2018-02-08T16:18:10.144Z,58.00
2018-02-08T16:20:38.461Z,58.00
2018-02-08T16:23:06.756Z,58.30
2018-02-08T16:25:34.307Z,58.80
2018-02-08T16:28:02.595Z,58.90
2018-02-08T16:30:30.916Z,59.00
2018-02-08T16:32:59.212Z,59.20
2018-02-08T16:35:27.528Z,59.60
2018-02-08T16:37:55.829Z,60.00
2018-02-08T16:40:24.127Z,60.30
2018-02-08T16:42:52.444Z,60.60
2018-02-08T16:45:20.735Z,60.90
2018-02-08T16:47:49.060Z,61.20
2018-02-08T16:50:17.351Z,61.50
2018-02-08T16:52:45.667Z,61.90
2018-02-08T16:55:13.971Z,62.50
2018-02-08T16:57:42.281Z,63.30
2018-02-08T17:00:10.570Z,63.90
2018-02-08T17:02:38.880Z,64.40
2018-02-08T17:05:07.184Z,64.80
2018-02-08T17:07:34.733Z,64.80
2018-02-08T17:10:03.026Z,65.20
2018-02-08T17:12:31.341Z,65.50
2018-02-08T17:14:59.639Z,65.70
2018-02-08T17:17:27.952Z,66.20
2018-02-08T17:19:56.243Z,67.00
2018-02-08T17:22:24.560Z,67.90
2018-02-08T17:24:52.851Z,69.30
2018-02-08T17:27:21.164Z,68.70
2018-02-08T17:29:49.455Z,68.90
2018-02-08T17:32:17.015Z,68.90
2018-02-08T17:34:45.307Z,69.60
2018-02-08T17:37:12.860Z,69.60
2018-02-08T17:39:41.154Z,70.60
2018-02-08T17:42:09.475Z,70.90
2018-02-08T17:44:37.767Z,71.20
2018-02-08T17:47:06.080Z,71.40
2018-02-08T17:49:34.380Z,71.60
2018-02-08T17:52:01.928Z,71.60
2018-02-08T17:54:30.224Z,71.70
2018-02-08T17:56:58.540Z,71.80
2018-02-08T17:59:26.839Z,72.00
2018-02-08T18:01:55.152Z,72.10
2018-02-08T18:04:23.453Z,72.20
2018-02-08T18:06:51.776Z,72.20
2018-02-08T18:09:20.109Z,72.40
2018-02-08T18:11:48.428Z,72.70
2018-02-08T18:14:16.727Z,73.10
2018-02-08T18:16:45.012Z,73.50
2018-02-08T18:19:13.333Z,73.60
2018-02-08T18:21:41.624Z,73.80
2018-02-08T18:24:09.946Z,73.90
2018-02-08T18:26:38.240Z,74.10
2018-02-08T18:29:06.556Z,74.30
2018-02-08T18:31:34.856Z,74.50
2018-02-08T18:34:03.204Z,74.40
2018-02-08T18:36:31.510Z,74.50
2018-02-08T18:38:59.833Z,74.70
2018-02-08T18:41:28.132Z,75.00
2018-02-08T18:43:56.496Z,75.00
2018-02-08T18:46:24.031Z,75.00
2018-02-08T18:48:52.348Z,75.10
2018-02-08T18:51:20.646Z,75.30
2018-02-08T18:53:48.244Z,75.30
2018-02-08T18:56:16.536Z,75.70
2018-02-08T18:58:44.857Z,75.90
2018-02-08T19:01:13.153Z,75.90
2018-02-08T19:03:41.468Z,75.90
2018-02-08T19:06:09.832Z,75.90
2018-02-08T19:08:39.133Z,75.90
2018-02-08T19:11:07.436Z,75.90
2018-02-08T19:13:35.752Z,75.90
2018-02-08T19:16:04.044Z,76.10
2018-02-08T19:18:32.370Z,76.10
2018-02-08T19:21:00.665Z,76.20
2018-02-08T19:23:28.992Z,76.10
2018-02-08T19:25:57.282Z,75.90
2018-02-08T19:28:25.600Z,75.90
2018-02-08T19:30:53.914Z,75.90
2018-02-08T19:33:22.248Z,75.90
2018-02-08T19:35:50.628Z,75.90
2018-02-08T19:38:18.192Z,75.90
2018-02-08T19:40:46.523Z,76.20
2018-02-08T19:43:14.843Z,76.30
2018-02-08T19:45:43.156Z,77.50
2018-02-08T19:48:11.476Z,76.90
2018-02-08T19:50:39.766Z,77.20
2018-02-08T19:53:07.308Z,77.20
2018-02-08T19:55:35.632Z,77.40
2018-02-08T19:58:03.988Z,77.00
2018-02-08T20:00:32.470Z,76.70
2018-02-08T20:03:00.801Z,76.60
2018-02-08T20:05:29.124Z,76.60
2018-02-08T20:07:57.417Z,77.50
2018-02-08T20:10:25.737Z,76.50
2018-02-08T20:12:54.032Z,76.50
2018-02-08T20:15:36.202Z,76.50
2018-02-08T20:18:04.615Z,76.50
2018-02-08T20:20:32.928Z,76.40
2018-02-08T20:23:01.224Z,76.20
2018-02-08T20:25:35.114Z,76.20
2018-02-08T20:28:03.420Z,76.10
2018-02-08T20:30:31.764Z,76.10
2018-02-08T20:33:00.091Z,76.20
2018-02-08T20:35:28.409Z,76.00
2018-02-08T20:37:56.710Z,76.10
2018-02-08T20:40:25.693Z,76.10
2018-02-08T20:42:59.584Z,76.10
2018-02-08T20:45:27.903Z,76.30
2018-02-08T20:47:55.441Z,76.30
2018-02-08T20:50:23.761Z,76.50
2018-02-08T20:52:51.284Z,76.40
2018-02-08T20:55:19.601Z,76.40
2018-02-08T20:57:47.943Z,76.40
2018-02-08T21:00:16.260Z,76.30
2018-02-08T21:02:44.552Z,76.20
2018-02-08T21:05:12.100Z,76.20
2018-02-08T21:07:40.524Z,76.80
2018-02-08T21:10:08.893Z,76.50
2018-02-08T21:12:37.198Z,76.60
2018-02-08T21:15:05.520Z,76.40
2018-02-08T21:17:33.829Z,76.20
2018-02-08T21:20:02.150Z,76.20
2018-02-08T21:22:30.512Z,76.30
2018-02-08T21:24:58.795Z,76.30
2018-02-08T21:27:27.128Z,76.20
2018-02-08T21:29:55.443Z,76.20
2018-02-08T21:32:23.744Z,76.10
2018-02-08T21:34:52.064Z,76.00
2018-02-08T21:37:20.361Z,75.90
2018-02-08T21:39:48.681Z,76.10
2018-02-08T21:42:16.980Z,76.10
2018-02-08T21:44:45.288Z,76.10
2018-02-08T21:47:13.583Z,76.10
2018-02-08T21:49:41.879Z,76.00
2018-02-08T21:52:10.197Z,76.10
2018-02-08T21:54:38.500Z,76.10
2018-02-08T21:57:06.832Z,76.80
2018-02-08T21:59:35.144Z,75.80
2018-02-08T22:02:02.696Z,75.80
2018-02-08T22:04:30.983Z,75.90
2018-02-08T22:06:58.535Z,75.80
2018-02-08T22:09:26.859Z,76.00
2018-02-08T22:11:55.175Z,76.00
2018-02-08T22:14:23.483Z,76.30
2018-02-08T22:16:51.804Z,76.50
2018-02-08T22:19:20.104Z,76.30
2018-02-08T22:21:48.429Z,76.20
2018-02-08T22:24:16.740Z,76.10
2018-02-08T22:26:45.053Z,76.10
2018-02-08T22:29:13.343Z,75.90
2018-02-08T22:31:41.660Z,75.70
2018-02-08T22:34:09.958Z,75.60
2018-02-08T22:36:38.273Z,75.60
2018-02-08T22:39:06.571Z,75.50
2018-02-08T22:41:34.893Z,75.50
2018-02-08T22:44:03.200Z,76.40
2018-02-08T22:46:31.521Z,75.50
2018-02-08T22:48:59.821Z,75.60
2018-02-08T22:51:28.139Z,75.70
2018-02-08T22:53:56.431Z,75.60
2018-02-08T22:56:24.739Z,75.50
2018-02-08T22:58:53.037Z,75.50
2018-02-08T23:01:21.353Z,75.30
2018-02-08T23:03:49.643Z,75.40
2018-02-08T23:06:17.967Z,75.30
2018-02-08T23:08:46.259Z,75.40
2018-02-08T23:11:14.579Z,75.30
2018-02-08T23:13:42.877Z,75.30
2018-02-08T23:16:11.404Z,75.10
2018-02-08T23:18:39.708Z,75.10
2018-02-08T23:21:08.023Z,75.00
2018-02-08T23:23:36.316Z,75.10
2018-02-08T23:26:04.638Z,75.10
2018-02-08T23:28:32.960Z,75.00
2018-02-08T23:31:01.261Z,75.00
2018-02-08T23:33:29.571Z,75.00
2018-02-08T23:35:57.863Z,74.80
2018-02-08T23:38:26.180Z,74.80
2018-02-08T23:40:53.719Z,74.80
2018-02-08T23:43:22.027Z,75.00
2018-02-08T23:45:50.328Z,75.20
2018-02-08T23:48:18.643Z,75.00
2018-02-08T23:50:46.944Z,75.00
2018-02-08T23:53:15.260Z,75.10
2018-02-08T23:55:43.552Z,75.00
2018-02-08T23:58:11.864Z,75.00
